sensor_id;sensor_type;location;lat;lon;timestamp;P1;durP1;ratioP1;P2;durP2;ratioP2
52642;SDS011;38531;53.296;6.614;2023-07-20T00:00:52;0.63;;;0.40;;
52642;SDS011;38531;53.296;6.614;2023-07-20T00:03:19;1.50;;;0.40;;
52642;SDS011;38531;53.296;6.614;2023-07-20T00:05:48;0.43;;;0.32;;
52642;SDS011;38531;53.296;6.614;2023-07-20T00:08:17;0.77;;;0.30;;
52642;SDS011;38531;53.296;6.614;2023-07-20T00:10:43;0.57;;;0.38;;
52642;SDS011;38531;53.296;6.614;2023-07-20T00:13:13;0.40;;;0.28;;
52642;SDS011;38531;53.296;6.614;2023-07-20T00:15:40;1.23;;;0.32;;
52642;SDS011;38531;53.296;6.614;2023-07-20T00:18:06;0.85;;;0.30;;
52642;SDS011;38531;53.296;6.614;2023-07-20T00:20:32;0.43;;;0.30;;
52642;SDS011;38531;53.296;6.614;2023-07-20T00:22:58;0.60;;;0.30;;
52642;SDS011;38531;53.296;6.614;2023-07-20T00:25:24;0.45;;;0.40;;
52642;SDS011;38531;53.296;6.614;2023-07-20T00:27:50;0.35;;;0.35;;
52642;SDS011;38531;53.296;6.614;2023-07-20T00:30:16;1.17;;;0.30;;
52642;SDS011;38531;53.296;6.614;2023-07-20T00:32:43;0.30;;;0.30;;
52642;SDS011;38531;53.296;6.614;2023-07-20T00:35:09;2.05;;;0.40;;
52642;SDS011;38531;53.296;6.614;2023-07-20T00:37:36;0.43;;;0.30;;
52642;SDS011;38531;53.296;6.614;2023-07-20T00:40:04;0.50;;;0.35;;
52642;SDS011;38531;53.296;6.614;2023-07-20T00:42:32;0.32;;;0.20;;
52642;SDS011;38531;53.296;6.614;2023-07-20T00:44:58;0.45;;;0.30;;
52642;SDS011;38531;53.296;6.614;2023-07-20T00:47:25;0.57;;;0.40;;
52642;SDS011;38531;53.296;6.614;2023-07-20T00:49:51;0.57;;;0.38;;
52642;SDS011;38531;53.296;6.614;2023-07-20T00:52:18;0.85;;;0.43;;
52642;SDS011;38531;53.296;6.614;2023-07-20T00:54:46;0.45;;;0.30;;
52642;SDS011;38531;53.296;6.614;2023-07-20T00:57:16;1.92;;;0.40;;
52642;SDS011;38531;53.296;6.614;2023-07-20T00:59:45;0.60;;;0.40;;
52642;SDS011;38531;53.296;6.614;2023-07-20T01:02:11;0.73;;;0.43;;
52642;SDS011;38531;53.296;6.614;2023-07-20T01:04:37;0.30;;;0.30;;
52642;SDS011;38531;53.296;6.614;2023-07-20T01:07:08;1.67;;;0.43;;
52642;SDS011;38531;53.296;6.614;2023-07-20T01:09:42;0.52;;;0.43;;
52642;SDS011;38531;53.296;6.614;2023-07-20T01:12:13;1.55;;;0.40;;
52642;SDS011;38531;53.296;6.614;2023-07-20T01:14:55;0.30;;;0.30;;
52642;SDS011;38531;53.296;6.614;2023-07-20T01:17:21;0.80;;;0.40;;
52642;SDS011;38531;53.296;6.614;2023-07-20T01:19:49;0.40;;;0.40;;
52642;SDS011;38531;53.296;6.614;2023-07-20T01:22:26;0.63;;;0.50;;
52642;SDS011;38531;53.296;6.614;2023-07-20T01:25:22;0.75;;;0.38;;
52642;SDS011;38531;53.296;6.614;2023-07-20T01:28:09;0.70;;;0.40;;
52642;SDS011;38531;53.296;6.614;2023-07-20T01:30:54;0.55;;;0.30;;
52642;SDS011;38531;53.296;6.614;2023-07-20T01:33:24;0.30;;;0.30;;
52642;SDS011;38531;53.296;6.614;2023-07-20T01:35:53;1.23;;;0.35;;
52642;SDS011;38531;53.296;6.614;2023-07-20T01:38:21;3.33;;;0.60;;
52642;SDS011;38531;53.296;6.614;2023-07-20T01:40:48;0.35;;;0.30;;
52642;SDS011;38531;53.296;6.614;2023-07-20T01:43:15;0.93;;;0.40;;
52642;SDS011;38531;53.296;6.614;2023-07-20T01:45:41;0.35;;;0.30;;
52642;SDS011;38531;53.296;6.614;2023-07-20T01:48:07;0.75;;;0.30;;
52642;SDS011;38531;53.296;6.614;2023-07-20T01:50:33;1.15;;;0.40;;
52642;SDS011;38531;53.296;6.614;2023-07-20T01:52:59;0.70;;;0.40;;
52642;SDS011;38531;53.296;6.614;2023-07-20T01:55:26;0.75;;;0.40;;
52642;SDS011;38531;53.296;6.614;2023-07-20T01:57:52;1.48;;;0.40;;
52642;SDS011;38531;53.296;6.614;2023-07-20T02:00:18;0.70;;;0.40;;
52642;SDS011;38531;53.296;6.614;2023-07-20T02:02:49;0.38;;;0.30;;
52642;SDS011;38531;53.296;6.614;2023-07-20T02:05:15;0.57;;;0.30;;
52642;SDS011;38531;53.296;6.614;2023-07-20T02:07:42;0.30;;;0.30;;
52642;SDS011;38531;53.296;6.614;2023-07-20T02:10:08;0.65;;;0.38;;
52642;SDS011;38531;53.296;6.614;2023-07-20T02:12:34;0.30;;;0.30;;
52642;SDS011;38531;53.296;6.614;2023-07-20T02:15:00;1.33;;;0.60;;
52642;SDS011;38531;53.296;6.614;2023-07-20T02:17:26;0.40;;;0.40;;
52642;SDS011;38531;53.296;6.614;2023-07-20T02:19:52;0.40;;;0.30;;
52642;SDS011;38531;53.296;6.614;2023-07-20T02:22:18;0.45;;;0.30;;
52642;SDS011;38531;53.296;6.614;2023-07-20T02:24:44;1.85;;;0.40;;
52642;SDS011;38531;53.296;6.614;2023-07-20T02:27:10;0.77;;;0.43;;
52642;SDS011;38531;53.296;6.614;2023-07-20T02:29:35;1.08;;;0.40;;
52642;SDS011;38531;53.296;6.614;2023-07-20T02:32:01;0.52;;;0.40;;
52642;SDS011;38531;53.296;6.614;2023-07-20T02:34:27;2.40;;;0.32;;
52642;SDS011;38531;53.296;6.614;2023-07-20T02:36:53;1.15;;;0.38;;
52642;SDS011;38531;53.296;6.614;2023-07-20T02:39:21;1.23;;;0.40;;
52642;SDS011;38531;53.296;6.614;2023-07-20T02:41:47;0.43;;;0.30;;
52642;SDS011;38531;53.296;6.614;2023-07-20T02:44:16;0.75;;;0.40;;
52642;SDS011;38531;53.296;6.614;2023-07-20T02:46:44;1.15;;;0.40;;
52642;SDS011;38531;53.296;6.614;2023-07-20T02:49:09;1.77;;;0.43;;
52642;SDS011;38531;53.296;6.614;2023-07-20T02:51:35;2.47;;;0.50;;
52642;SDS011;38531;53.296;6.614;2023-07-20T02:54:01;0.50;;;0.40;;
52642;SDS011;38531;53.296;6.614;2023-07-20T02:56:28;1.23;;;0.50;;
52642;SDS011;38531;53.296;6.614;2023-07-20T02:58:54;1.05;;;0.40;;
52642;SDS011;38531;53.296;6.614;2023-07-20T03:01:20;1.67;;;0.40;;
52642;SDS011;38531;53.296;6.614;2023-07-20T03:03:45;0.40;;;0.30;;
52642;SDS011;38531;53.296;6.614;2023-07-20T03:06:14;0.30;;;0.30;;
52642;SDS011;38531;53.296;6.614;2023-07-20T03:08:40;0.40;;;0.40;;
52642;SDS011;38531;53.296;6.614;2023-07-20T03:11:07;0.30;;;0.30;;
52642;SDS011;38531;53.296;6.614;2023-07-20T03:13:32;0.50;;;0.40;;
52642;SDS011;38531;53.296;6.614;2023-07-20T03:15:58;2.78;;;0.40;;
52642;SDS011;38531;53.296;6.614;2023-07-20T03:18:24;5.57;;;0.95;;
52642;SDS011;38531;53.296;6.614;2023-07-20T03:20:50;1.05;;;0.40;;
52642;SDS011;38531;53.296;6.614;2023-07-20T03:23:15;2.13;;;0.40;;
52642;SDS011;38531;53.296;6.614;2023-07-20T03:25:41;1.52;;;0.60;;
52642;SDS011;38531;53.296;6.614;2023-07-20T03:28:07;0.40;;;0.40;;
52642;SDS011;38531;53.296;6.614;2023-07-20T03:30:33;0.52;;;0.40;;
52642;SDS011;38531;53.296;6.614;2023-07-20T03:33:00;0.50;;;0.40;;
52642;SDS011;38531;53.296;6.614;2023-07-20T03:35:25;1.30;;;0.43;;
52642;SDS011;38531;53.296;6.614;2023-07-20T03:37:51;0.57;;;0.50;;
52642;SDS011;38531;53.296;6.614;2023-07-20T03:40:17;2.42;;;0.50;;
52642;SDS011;38531;53.296;6.614;2023-07-20T03:42:43;2.15;;;0.50;;
52642;SDS011;38531;53.296;6.614;2023-07-20T03:45:08;1.95;;;0.43;;
52642;SDS011;38531;53.296;6.614;2023-07-20T03:47:34;0.50;;;0.40;;
52642;SDS011;38531;53.296;6.614;2023-07-20T03:50:00;0.43;;;0.40;;
52642;SDS011;38531;53.296;6.614;2023-07-20T03:52:26;0.40;;;0.40;;
52642;SDS011;38531;53.296;6.614;2023-07-20T03:54:52;0.70;;;0.40;;
52642;SDS011;38531;53.296;6.614;2023-07-20T03:57:17;0.70;;;0.50;;
52642;SDS011;38531;53.296;6.614;2023-07-20T03:59:47;0.85;;;0.52;;
52642;SDS011;38531;53.296;6.614;2023-07-20T04:02:13;0.60;;;0.55;;
52642;SDS011;38531;53.296;6.614;2023-07-20T04:04:39;4.63;;;0.88;;
52642;SDS011;38531;53.296;6.614;2023-07-20T04:07:05;2.35;;;0.70;;
52642;SDS011;38531;53.296;6.614;2023-07-20T04:09:32;1.13;;;0.47;;
52642;SDS011;38531;53.296;6.614;2023-07-20T04:11:58;1.35;;;0.70;;
52642;SDS011;38531;53.296;6.614;2023-07-20T04:14:25;2.47;;;0.50;;
52642;SDS011;38531;53.296;6.614;2023-07-20T04:16:50;1.33;;;0.45;;
52642;SDS011;38531;53.296;6.614;2023-07-20T04:19:16;1.40;;;0.57;;
52642;SDS011;38531;53.296;6.614;2023-07-20T04:21:43;0.90;;;0.57;;
52642;SDS011;38531;53.296;6.614;2023-07-20T04:24:09;1.10;;;0.45;;
52642;SDS011;38531;53.296;6.614;2023-07-20T04:26:34;1.40;;;0.50;;
52642;SDS011;38531;53.296;6.614;2023-07-20T04:29:01;2.35;;;0.40;;
52642;SDS011;38531;53.296;6.614;2023-07-20T04:31:28;0.70;;;0.50;;
52642;SDS011;38531;53.296;6.614;2023-07-20T04:33:57;0.93;;;0.50;;
52642;SDS011;38531;53.296;6.614;2023-07-20T04:36:25;0.75;;;0.60;;
52642;SDS011;38531;53.296;6.614;2023-07-20T04:38:50;0.73;;;0.50;;
52642;SDS011;38531;53.296;6.614;2023-07-20T04:41:16;1.48;;;0.60;;
52642;SDS011;38531;53.296;6.614;2023-07-20T04:43:43;1.83;;;0.60;;
52642;SDS011;38531;53.296;6.614;2023-07-20T04:46:12;0.85;;;0.65;;
52642;SDS011;38531;53.296;6.614;2023-07-20T04:48:38;3.08;;;0.50;;
52642;SDS011;38531;53.296;6.614;2023-07-20T04:51:06;0.57;;;0.43;;
52642;SDS011;38531;53.296;6.614;2023-07-20T04:53:32;0.95;;;0.55;;
52642;SDS011;38531;53.296;6.614;2023-07-20T04:55:58;0.77;;;0.50;;
52642;SDS011;38531;53.296;6.614;2023-07-20T04:58:24;2.60;;;0.30;;
52642;SDS011;38531;53.296;6.614;2023-07-20T05:00:51;0.40;;;0.40;;
52642;SDS011;38531;53.296;6.614;2023-07-20T05:03:17;0.63;;;0.40;;
52642;SDS011;38531;53.296;6.614;2023-07-20T05:05:43;0.85;;;0.50;;
52642;SDS011;38531;53.296;6.614;2023-07-20T05:08:08;0.50;;;0.40;;
52642;SDS011;38531;53.296;6.614;2023-07-20T05:10:34;0.60;;;0.35;;
52642;SDS011;38531;53.296;6.614;2023-07-20T05:13:00;1.08;;;0.47;;
52642;SDS011;38531;53.296;6.614;2023-07-20T05:15:26;0.38;;;0.30;;
52642;SDS011;38531;53.296;6.614;2023-07-20T05:17:52;0.60;;;0.47;;
52642;SDS011;38531;53.296;6.614;2023-07-20T05:20:17;1.05;;;0.50;;
52642;SDS011;38531;53.296;6.614;2023-07-20T05:22:43;0.50;;;0.40;;
52642;SDS011;38531;53.296;6.614;2023-07-20T05:25:10;1.63;;;0.40;;
52642;SDS011;38531;53.296;6.614;2023-07-20T05:27:39;2.33;;;0.50;;
52642;SDS011;38531;53.296;6.614;2023-07-20T05:30:05;0.60;;;0.40;;
52642;SDS011;38531;53.296;6.614;2023-07-20T05:32:32;1.17;;;0.52;;
52642;SDS011;38531;53.296;6.614;2023-07-20T05:34:58;0.50;;;0.40;;
52642;SDS011;38531;53.296;6.614;2023-07-20T05:41:05;0.55;;;0.47;;
52642;SDS011;38531;53.296;6.614;2023-07-20T05:43:35;1.48;;;0.40;;
52642;SDS011;38531;53.296;6.614;2023-07-20T05:46:01;2.08;;;0.20;;
52642;SDS011;38531;53.296;6.614;2023-07-20T05:48:26;2.10;;;0.40;;
52642;SDS011;38531;53.296;6.614;2023-07-20T05:50:52;1.05;;;0.30;;
52642;SDS011;38531;53.296;6.614;2023-07-20T05:53:18;2.28;;;0.32;;
52642;SDS011;38531;53.296;6.614;2023-07-20T05:55:44;0.50;;;0.30;;
52642;SDS011;38531;53.296;6.614;2023-07-20T05:58:16;1.13;;;0.40;;
52642;SDS011;38531;53.296;6.614;2023-07-20T06:00:42;1.27;;;0.40;;
52642;SDS011;38531;53.296;6.614;2023-07-20T06:03:07;0.60;;;0.30;;
52642;SDS011;38531;53.296;6.614;2023-07-20T06:05:34;3.17;;;0.60;;
52642;SDS011;38531;53.296;6.614;2023-07-20T06:07:59;0.63;;;0.20;;
52642;SDS011;38531;53.296;6.614;2023-07-20T06:10:26;0.73;;;0.30;;
52642;SDS011;38531;53.296;6.614;2023-07-20T06:12:52;1.80;;;0.40;;
52642;SDS011;38531;53.296;6.614;2023-07-20T06:15:27;3.65;;;0.40;;
52642;SDS011;38531;53.296;6.614;2023-07-20T06:17:54;1.90;;;0.40;;
52642;SDS011;38531;53.296;6.614;2023-07-20T06:20:21;0.55;;;0.20;;
52642;SDS011;38531;53.296;6.614;2023-07-20T06:22:47;1.40;;;0.40;;
52642;SDS011;38531;53.296;6.614;2023-07-20T06:25:13;0.77;;;0.40;;
52642;SDS011;38531;53.296;6.614;2023-07-20T06:27:39;3.05;;;0.63;;
52642;SDS011;38531;53.296;6.614;2023-07-20T06:30:05;4.43;;;0.60;;
52642;SDS011;38531;53.296;6.614;2023-07-20T06:32:31;1.75;;;0.40;;
52642;SDS011;38531;53.296;6.614;2023-07-20T06:34:57;6.40;;;0.70;;
52642;SDS011;38531;53.296;6.614;2023-07-20T06:37:23;1.75;;;0.70;;
52642;SDS011;38531;53.296;6.614;2023-07-20T06:39:49;1.40;;;0.60;;
52642;SDS011;38531;53.296;6.614;2023-07-20T06:42:15;1.95;;;0.60;;
52642;SDS011;38531;53.296;6.614;2023-07-20T06:44:40;1.13;;;0.75;;
52642;SDS011;38531;53.296;6.614;2023-07-20T06:47:09;4.80;;;0.65;;
52642;SDS011;38531;53.296;6.614;2023-07-20T06:49:37;2.35;;;0.73;;
52642;SDS011;38531;53.296;6.614;2023-07-20T06:52:03;1.08;;;0.63;;
52642;SDS011;38531;53.296;6.614;2023-07-20T06:54:29;3.42;;;0.60;;
52642;SDS011;38531;53.296;6.614;2023-07-20T06:56:54;2.95;;;0.60;;
52642;SDS011;38531;53.296;6.614;2023-07-20T06:59:20;4.68;;;0.80;;
52642;SDS011;38531;53.296;6.614;2023-07-20T07:01:46;2.38;;;0.60;;
52642;SDS011;38531;53.296;6.614;2023-07-20T07:04:12;2.88;;;0.60;;
52642;SDS011;38531;53.296;6.614;2023-07-20T07:06:38;3.88;;;0.70;;
52642;SDS011;38531;53.296;6.614;2023-07-20T07:09:03;2.03;;;0.70;;
52642;SDS011;38531;53.296;6.614;2023-07-20T07:11:30;2.00;;;0.55;;
52642;SDS011;38531;53.296;6.614;2023-07-20T07:13:56;2.45;;;0.80;;
52642;SDS011;38531;53.296;6.614;2023-07-20T07:16:22;2.03;;;0.70;;
52642;SDS011;38531;53.296;6.614;2023-07-20T07:18:49;1.90;;;0.60;;
52642;SDS011;38531;53.296;6.614;2023-07-20T07:21:16;4.32;;;1.27;;
52642;SDS011;38531;53.296;6.614;2023-07-20T07:23:42;2.17;;;0.70;;
52642;SDS011;38531;53.296;6.614;2023-07-20T07:26:08;3.05;;;0.60;;
52642;SDS011;38531;53.296;6.614;2023-07-20T07:28:35;2.38;;;0.60;;
52642;SDS011;38531;53.296;6.614;2023-07-20T07:31:03;1.67;;;0.40;;
52642;SDS011;38531;53.296;6.614;2023-07-20T07:33:31;1.38;;;0.50;;
52642;SDS011;38531;53.296;6.614;2023-07-20T07:35:57;1.40;;;0.50;;
52642;SDS011;38531;53.296;6.614;2023-07-20T07:38:23;3.53;;;0.50;;
52642;SDS011;38531;53.296;6.614;2023-07-20T07:40:49;2.35;;;0.40;;
52642;SDS011;38531;53.296;6.614;2023-07-20T07:43:14;2.58;;;0.50;;
52642;SDS011;38531;53.296;6.614;2023-07-20T07:45:40;8.82;;;0.85;;
52642;SDS011;38531;53.296;6.614;2023-07-20T07:48:06;3.55;;;0.50;;
52642;SDS011;38531;53.296;6.614;2023-07-20T07:50:32;0.70;;;0.28;;
52642;SDS011;38531;53.296;6.614;2023-07-20T07:52:59;0.98;;;0.40;;
52642;SDS011;38531;53.296;6.614;2023-07-20T07:55:25;0.35;;;0.20;;
52642;SDS011;38531;53.296;6.614;2023-07-20T07:57:53;1.40;;;0.30;;
52642;SDS011;38531;53.296;6.614;2023-07-20T08:00:19;1.77;;;0.30;;
52642;SDS011;38531;53.296;6.614;2023-07-20T08:02:45;3.30;;;0.82;;
52642;SDS011;38531;53.296;6.614;2023-07-20T08:05:13;1.95;;;0.20;;
52642;SDS011;38531;53.296;6.614;2023-07-20T08:07:39;2.22;;;0.40;;
52642;SDS011;38531;53.296;6.614;2023-07-20T08:10:05;1.35;;;0.28;;
52642;SDS011;38531;53.296;6.614;2023-07-20T08:12:32;3.40;;;0.75;;
52642;SDS011;38531;53.296;6.614;2023-07-20T08:14:57;1.45;;;0.30;;
52642;SDS011;38531;53.296;6.614;2023-07-20T08:17:23;1.05;;;0.30;;
52642;SDS011;38531;53.296;6.614;2023-07-20T08:19:49;2.63;;;0.35;;
52642;SDS011;38531;53.296;6.614;2023-07-20T08:22:15;1.48;;;0.30;;
52642;SDS011;38531;53.296;6.614;2023-07-20T08:24:41;2.00;;;0.22;;
52642;SDS011;38531;53.296;6.614;2023-07-20T08:27:08;1.30;;;0.30;;
52642;SDS011;38531;53.296;6.614;2023-07-20T08:29:34;2.97;;;0.35;;
52642;SDS011;38531;53.296;6.614;2023-07-20T08:32:00;2.20;;;0.20;;
52642;SDS011;38531;53.296;6.614;2023-07-20T08:34:26;2.75;;;0.28;;
52642;SDS011;38531;53.296;6.614;2023-07-20T08:36:52;1.00;;;0.20;;
52642;SDS011;38531;53.296;6.614;2023-07-20T08:39:18;1.17;;;0.20;;
52642;SDS011;38531;53.296;6.614;2023-07-20T08:41:44;1.00;;;0.25;;
52642;SDS011;38531;53.296;6.614;2023-07-20T08:44:10;2.50;;;0.20;;
52642;SDS011;38531;53.296;6.614;2023-07-20T08:46:38;0.43;;;0.32;;
52642;SDS011;38531;53.296;6.614;2023-07-20T08:49:06;1.73;;;0.20;;
52642;SDS011;38531;53.296;6.614;2023-07-20T08:51:33;0.32;;;0.10;;
52642;SDS011;38531;53.296;6.614;2023-07-20T08:54:01;1.65;;;0.30;;
52642;SDS011;38531;53.296;6.614;2023-07-20T08:56:27;1.38;;;0.30;;
52642;SDS011;38531;53.296;6.614;2023-07-20T08:58:54;0.65;;;0.13;;
52642;SDS011;38531;53.296;6.614;2023-07-20T09:01:21;1.50;;;0.30;;
52642;SDS011;38531;53.296;6.614;2023-07-20T09:03:47;1.65;;;0.40;;
52642;SDS011;38531;53.296;6.614;2023-07-20T09:06:14;0.70;;;0.20;;
52642;SDS011;38531;53.296;6.614;2023-07-20T09:08:40;1.45;;;0.20;;
52642;SDS011;38531;53.296;6.614;2023-07-20T09:11:06;1.45;;;0.10;;
52642;SDS011;38531;53.296;6.614;2023-07-20T09:13:33;1.40;;;0.20;;
52642;SDS011;38531;53.296;6.614;2023-07-20T09:15:59;0.65;;;0.25;;
52642;SDS011;38531;53.296;6.614;2023-07-20T09:18:29;0.50;;;0.20;;
52642;SDS011;38531;53.296;6.614;2023-07-20T09:21:03;0.93;;;0.40;;
52642;SDS011;38531;53.296;6.614;2023-07-20T09:23:31;0.98;;;0.20;;
52642;SDS011;38531;53.296;6.614;2023-07-20T09:26:10;0.40;;;0.30;;
52642;SDS011;38531;53.296;6.614;2023-07-20T09:28:41;2.85;;;0.20;;
52642;SDS011;38531;53.296;6.614;2023-07-20T09:31:23;1.00;;;0.20;;
52642;SDS011;38531;53.296;6.614;2023-07-20T09:33:49;1.05;;;0.20;;
52642;SDS011;38531;53.296;6.614;2023-07-20T09:36:17;0.85;;;0.20;;
52642;SDS011;38531;53.296;6.614;2023-07-20T09:38:43;0.82;;;0.20;;
52642;SDS011;38531;53.296;6.614;2023-07-20T09:41:13;1.65;;;0.20;;
52642;SDS011;38531;53.296;6.614;2023-07-20T09:43:40;1.27;;;0.20;;
52642;SDS011;38531;53.296;6.614;2023-07-20T09:46:06;1.08;;;0.10;;
52642;SDS011;38531;53.296;6.614;2023-07-20T09:48:32;0.73;;;0.20;;
52642;SDS011;38531;53.296;6.614;2023-07-20T09:50:58;1.75;;;0.30;;
52642;SDS011;38531;53.296;6.614;2023-07-20T09:53:24;1.80;;;0.35;;
52642;SDS011;38531;53.296;6.614;2023-07-20T09:55:52;2.88;;;0.20;;
52642;SDS011;38531;53.296;6.614;2023-07-20T09:58:19;1.98;;;0.20;;
52642;SDS011;38531;53.296;6.614;2023-07-20T10:00:45;1.92;;;0.10;;
52642;SDS011;38531;53.296;6.614;2023-07-20T10:03:20;0.43;;;0.10;;
52642;SDS011;38531;53.296;6.614;2023-07-20T10:05:57;0.75;;;0.20;;
52642;SDS011;38531;53.296;6.614;2023-07-20T10:08:29;0.65;;;0.20;;
52642;SDS011;38531;53.296;6.614;2023-07-20T10:10:56;2.47;;;0.20;;
52642;SDS011;38531;53.296;6.614;2023-07-20T10:13:26;0.55;;;0.38;;
52642;SDS011;38531;53.296;6.614;2023-07-20T10:16:01;1.42;;;0.30;;
52642;SDS011;38531;53.296;6.614;2023-07-20T10:18:38;0.50;;;0.20;;
52642;SDS011;38531;53.296;6.614;2023-07-20T10:21:13;0.40;;;0.10;;
52642;SDS011;38531;53.296;6.614;2023-07-20T10:23:42;2.95;;;0.30;;
52642;SDS011;38531;53.296;6.614;2023-07-20T10:26:08;0.73;;;0.20;;
52642;SDS011;38531;53.296;6.614;2023-07-20T10:28:35;1.17;;;0.17;;
52642;SDS011;38531;53.296;6.614;2023-07-20T10:31:01;1.25;;;0.10;;
52642;SDS011;38531;53.296;6.614;2023-07-20T10:33:31;1.65;;;0.20;;
52642;SDS011;38531;53.296;6.614;2023-07-20T10:36:00;1.50;;;0.20;;
52642;SDS011;38531;53.296;6.614;2023-07-20T10:41:18;1.35;;;0.32;;
52642;SDS011;38531;53.296;6.614;2023-07-20T10:43:49;0.70;;;0.10;;
52642;SDS011;38531;53.296;6.614;2023-07-20T10:49:02;0.85;;;0.20;;
52642;SDS011;38531;53.296;6.614;2023-07-20T10:51:42;1.60;;;0.20;;
52642;SDS011;38531;53.296;6.614;2023-07-20T10:56:44;1.13;;;0.30;;
52642;SDS011;38531;53.296;6.614;2023-07-20T11:01:56;1.00;;;0.30;;
52642;SDS011;38531;53.296;6.614;2023-07-20T11:04:47;0.75;;;0.20;;
52642;SDS011;38531;53.296;6.614;2023-07-20T11:07:41;2.15;;;0.10;;
52642;SDS011;38531;53.296;6.614;2023-07-20T11:10:16;1.08;;;0.30;;
52642;SDS011;38531;53.296;6.614;2023-07-20T11:13:12;1.02;;;0.20;;
52642;SDS011;38531;53.296;6.614;2023-07-20T11:18:28;2.50;;;0.30;;
52642;SDS011;38531;53.296;6.614;2023-07-20T11:20:56;0.57;;;0.20;;
52642;SDS011;38531;53.296;6.614;2023-07-20T11:23:27;0.52;;;0.10;;
52642;SDS011;38531;53.296;6.614;2023-07-20T11:26:28;2.35;;;0.13;;
52642;SDS011;38531;53.296;6.614;2023-07-20T11:29:13;2.15;;;0.10;;
52642;SDS011;38531;53.296;6.614;2023-07-20T11:31:53;0.70;;;0.10;;
52642;SDS011;38531;53.296;6.614;2023-07-20T11:34:20;1.15;;;0.20;;
52642;SDS011;38531;53.296;6.614;2023-07-20T11:36:47;0.50;;;0.10;;
52642;SDS011;38531;53.296;6.614;2023-07-20T11:39:17;0.40;;;0.10;;
52642;SDS011;38531;53.296;6.614;2023-07-20T11:41:51;1.60;;;0.20;;
52642;SDS011;38531;53.296;6.614;2023-07-20T11:44:18;0.35;;;0.10;;
52642;SDS011;38531;53.296;6.614;2023-07-20T11:46:49;0.93;;;0.20;;
52642;SDS011;38531;53.296;6.614;2023-07-20T11:49:15;1.20;;;0.60;;
52642;SDS011;38531;53.296;6.614;2023-07-20T11:51:41;0.95;;;0.10;;
52642;SDS011;38531;53.296;6.614;2023-07-20T11:54:07;0.40;;;0.10;;
52642;SDS011;38531;53.296;6.614;2023-07-20T11:56:34;0.63;;;0.20;;
52642;SDS011;38531;53.296;6.614;2023-07-20T11:58:59;0.43;;;0.10;;
52642;SDS011;38531;53.296;6.614;2023-07-20T12:01:28;0.47;;;0.10;;
52642;SDS011;38531;53.296;6.614;2023-07-20T12:04:00;1.70;;;0.20;;
52642;SDS011;38531;53.296;6.614;2023-07-20T12:06:29;0.82;;;0.10;;
52642;SDS011;38531;53.296;6.614;2023-07-20T12:08:59;0.20;;;0.10;;
52642;SDS011;38531;53.296;6.614;2023-07-20T12:14:00;0.38;;;0.10;;
52642;SDS011;38531;53.296;6.614;2023-07-20T12:16:27;0.50;;;0.10;;
52642;SDS011;38531;53.296;6.614;2023-07-20T12:18:59;3.08;;;0.20;;
52642;SDS011;38531;53.296;6.614;2023-07-20T12:21:25;0.95;;;0.20;;
52642;SDS011;38531;53.296;6.614;2023-07-20T12:23:51;2.05;;;0.40;;
52642;SDS011;38531;53.296;6.614;2023-07-20T12:26:17;1.38;;;0.10;;
52642;SDS011;38531;53.296;6.614;2023-07-20T12:28:45;0.95;;;0.20;;
52642;SDS011;38531;53.296;6.614;2023-07-20T12:31:11;0.95;;;0.30;;
52642;SDS011;38531;53.296;6.614;2023-07-20T12:33:38;1.08;;;0.05;;
52642;SDS011;38531;53.296;6.614;2023-07-20T12:36:04;0.40;;;0.10;;
52642;SDS011;38531;53.296;6.614;2023-07-20T12:38:30;1.45;;;0.35;;
52642;SDS011;38531;53.296;6.614;2023-07-20T12:40:56;0.20;;;0.10;;
52642;SDS011;38531;53.296;6.614;2023-07-20T12:43:26;1.10;;;0.10;;
52642;SDS011;38531;53.296;6.614;2023-07-20T12:45:51;1.40;;;0.20;;
52642;SDS011;38531;53.296;6.614;2023-07-20T12:48:18;0.57;;;0.20;;
52642;SDS011;38531;53.296;6.614;2023-07-20T12:50:43;0.30;;;0.10;;
52642;SDS011;38531;53.296;6.614;2023-07-20T12:53:09;1.40;;;0.20;;
52642;SDS011;38531;53.296;6.614;2023-07-20T12:55:35;0.85;;;0.20;;
52642;SDS011;38531;53.296;6.614;2023-07-20T12:58:01;0.40;;;0.10;;
52642;SDS011;38531;53.296;6.614;2023-07-20T13:00:26;0.43;;;0.10;;
52642;SDS011;38531;53.296;6.614;2023-07-20T13:02:52;1.02;;;0.15;;
52642;SDS011;38531;53.296;6.614;2023-07-20T13:05:18;1.20;;;0.13;;
52642;SDS011;38531;53.296;6.614;2023-07-20T13:07:44;0.20;;;0.10;;
52642;SDS011;38531;53.296;6.614;2023-07-20T13:10:11;2.75;;;0.10;;
52642;SDS011;38531;53.296;6.614;2023-07-20T13:12:37;0.25;;;0.10;;
52642;SDS011;38531;53.296;6.614;2023-07-20T13:15:04;0.40;;;0.10;;
52642;SDS011;38531;53.296;6.614;2023-07-20T13:17:34;0.82;;;0.10;;
52642;SDS011;38531;53.296;6.614;2023-07-20T13:20:01;0.60;;;0.10;;
52642;SDS011;38531;53.296;6.614;2023-07-20T13:22:29;1.08;;;0.10;;
52642;SDS011;38531;53.296;6.614;2023-07-20T13:24:55;0.85;;;0.20;;
52642;SDS011;38531;53.296;6.614;2023-07-20T13:27:21;1.40;;;0.25;;
52642;SDS011;38531;53.296;6.614;2023-07-20T13:29:47;0.45;;;0.10;;
52642;SDS011;38531;53.296;6.614;2023-07-20T13:32:13;0.98;;;0.20;;
52642;SDS011;38531;53.296;6.614;2023-07-20T13:34:40;1.27;;;0.20;;
52642;SDS011;38531;53.296;6.614;2023-07-20T13:37:06;0.60;;;0.10;;
52642;SDS011;38531;53.296;6.614;2023-07-20T13:39:32;1.20;;;0.30;;
52642;SDS011;38531;53.296;6.614;2023-07-20T13:41:58;1.20;;;0.25;;
52642;SDS011;38531;53.296;6.614;2023-07-20T13:44:36;1.33;;;0.65;;
52642;SDS011;38531;53.296;6.614;2023-07-20T13:47:03;0.35;;;0.10;;
52642;SDS011;38531;53.296;6.614;2023-07-20T13:52:26;1.48;;;0.30;;
52642;SDS011;38531;53.296;6.614;2023-07-20T13:54:54;2.28;;;0.20;;
52642;SDS011;38531;53.296;6.614;2023-07-20T13:57:19;1.85;;;0.10;;
52642;SDS011;38531;53.296;6.614;2023-07-20T13:59:45;0.40;;;0.10;;
52642;SDS011;38531;53.296;6.614;2023-07-20T14:05:09;0.68;;;0.10;;
52642;SDS011;38531;53.296;6.614;2023-07-20T14:07:35;0.70;;;0.20;;
52642;SDS011;38531;53.296;6.614;2023-07-20T14:10:01;0.77;;;0.15;;
52642;SDS011;38531;53.296;6.614;2023-07-20T14:12:27;0.17;;;0.10;;
52642;SDS011;38531;53.296;6.614;2023-07-20T14:14:53;0.50;;;0.10;;
52642;SDS011;38531;53.296;6.614;2023-07-20T14:17:21;0.85;;;0.30;;
52642;SDS011;38531;53.296;6.614;2023-07-20T14:19:47;0.50;;;0.10;;
52642;SDS011;38531;53.296;6.614;2023-07-20T14:29:59;1.30;;;0.20;;
52642;SDS011;38531;53.296;6.614;2023-07-20T14:32:37;0.43;;;0.10;;
52642;SDS011;38531;53.296;6.614;2023-07-20T14:35:06;0.60;;;0.20;;
52642;SDS011;38531;53.296;6.614;2023-07-20T14:37:34;0.10;;;0.10;;
52642;SDS011;38531;53.296;6.614;2023-07-20T14:42:58;0.73;;;0.20;;
52642;SDS011;38531;53.296;6.614;2023-07-20T14:45:26;0.73;;;0.13;;
52642;SDS011;38531;53.296;6.614;2023-07-20T14:48:05;0.70;;;0.20;;
52642;SDS011;38531;53.296;6.614;2023-07-20T14:50:31;0.80;;;0.20;;
52642;SDS011;38531;53.296;6.614;2023-07-20T14:52:57;1.30;;;0.30;;
52642;SDS011;38531;53.296;6.614;2023-07-20T14:55:22;0.95;;;0.30;;
52642;SDS011;38531;53.296;6.614;2023-07-20T15:00:59;0.60;;;0.40;;
52642;SDS011;38531;53.296;6.614;2023-07-20T15:07:31;3.03;;;0.40;;
52642;SDS011;38531;53.296;6.614;2023-07-20T15:28:23;1.13;;;0.30;;
52642;SDS011;38531;53.296;6.614;2023-07-20T15:30:49;0.93;;;0.30;;
52642;SDS011;38531;53.296;6.614;2023-07-20T15:33:35;0.88;;;0.28;;
52642;SDS011;38531;53.296;6.614;2023-07-20T15:39:03;1.55;;;0.28;;
52642;SDS011;38531;53.296;6.614;2023-07-20T15:45:20;2.10;;;0.20;;
52642;SDS011;38531;53.296;6.614;2023-07-20T15:47:59;0.60;;;0.20;;
52642;SDS011;38531;53.296;6.614;2023-07-20T15:50:24;0.73;;;0.22;;
52642;SDS011;38531;53.296;6.614;2023-07-20T15:52:53;0.63;;;0.20;;
52642;SDS011;38531;53.296;6.614;2023-07-20T15:56:09;1.15;;;0.30;;
52642;SDS011;38531;53.296;6.614;2023-07-20T16:59:02;1.35;;;0.13;;
52642;SDS011;38531;53.296;6.614;2023-07-20T17:15:24;1.65;;;0.30;;